sensor_id;sensor_type;location;lat;lon;timestamp;pressure;altitude;pressure_sealevel;temperature;humidity
41234;BME280;26968;42.686;23.352;2024-02-15T00:00:16;95642.88;;;3.05;59.35
41234;BME280;26968;42.686;23.352;2024-02-15T00:02:43;95638.97;;;3.01;59.20
41234;BME280;26968;42.686;23.352;2024-02-15T00:05:10;95627.63;;;2.94;59.62
41234;BME280;26968;42.686;23.352;2024-02-15T00:07:36;95610.78;;;2.81;59.08
41234;BME280;26968;42.686;23.352;2024-02-15T00:10:01;95658.06;;;3.06;58.83
41234;BME280;26968;42.686;23.352;2024-02-15T00:12:29;95647.44;;;3.01;59.21
41234;BME280;26968;42.686;23.352;2024-02-15T00:14:55;95641.09;;;2.96;58.99
41234;BME280;26968;42.686;23.352;2024-02-15T00:17:24;95639.66;;;3.03;59.18
41234;BME280;26968;42.686;23.352;2024-02-15T00:19:50;95646.91;;;3.07;59.10
41234;BME280;26968;42.686;23.352;2024-02-15T00:22:15;95655.25;;;3.00;58.71
41234;BME280;26968;42.686;23.352;2024-02-15T00:24:41;95637.34;;;2.90;59.18
41234;BME280;26968;42.686;23.352;2024-02-15T00:27:08;95653.06;;;2.95;59.25
41234;BME280;26968;42.686;23.352;2024-02-15T00:29:33;95653.38;;;3.02;59.12
41234;BME280;26968;42.686;23.352;2024-02-15T00:32:00;95640.81;;;2.89;59.52
41234;BME280;26968;42.686;23.352;2024-02-15T00:34:26;95655.66;;;3.05;59.10
41234;BME280;26968;42.686;23.352;2024-02-15T00:36:52;95666.03;;;3.03;58.95
41234;BME280;26968;42.686;23.352;2024-02-15T00:39:17;95641.53;;;3.01;58.55
41234;BME280;26968;42.686;23.352;2024-02-15T00:41:46;95653.25;;;3.03;58.99
41234;BME280;26968;42.686;23.352;2024-02-15T00:44:12;95635.97;;;2.86;58.59
41234;BME280;26968;42.686;23.352;2024-02-15T00:46:38;95664.09;;;2.96;59.02
41234;BME280;26968;42.686;23.352;2024-02-15T00:49:04;95665.03;;;2.95;58.86
41234;BME280;26968;42.686;23.352;2024-02-15T00:51:32;95637.84;;;2.94;58.80
41234;BME280;26968;42.686;23.352;2024-02-15T00:53:59;95662.53;;;3.04;58.71
41234;BME280;26968;42.686;23.352;2024-02-15T00:56:25;95651.06;;;2.99;59.16
41234;BME280;26968;42.686;23.352;2024-02-15T00:58:50;95652.44;;;3.03;58.74
41234;BME280;26968;42.686;23.352;2024-02-15T01:01:16;95652.38;;;2.93;58.47
41234;BME280;26968;42.686;23.352;2024-02-15T01:03:41;95653.75;;;2.97;58.89
41234;BME280;26968;42.686;23.352;2024-02-15T01:06:06;95655.78;;;3.03;58.57
41234;BME280;26968;42.686;23.352;2024-02-15T01:08:32;95652.78;;;2.89;58.79
41234;BME280;26968;42.686;23.352;2024-02-15T01:10:58;95617.31;;;2.65;58.73
41234;BME280;26968;42.686;23.352;2024-02-15T01:13:24;95650.25;;;2.89;58.82
41234;BME280;26968;42.686;23.352;2024-02-15T01:15:50;95647.50;;;2.80;58.69
41234;BME280;26968;42.686;23.352;2024-02-15T01:18:15;95653.03;;;2.86;59.16
41234;BME280;26968;42.686;23.352;2024-02-15T01:20:41;95657.38;;;2.95;58.90
41234;BME280;26968;42.686;23.352;2024-02-15T01:23:06;95633.16;;;2.89;58.75
41234;BME280;26968;42.686;23.352;2024-02-15T01:25:33;95636.91;;;2.95;58.35
41234;BME280;26968;42.686;23.352;2024-02-15T01:27:58;95646.47;;;2.93;58.64
41234;BME280;26968;42.686;23.352;2024-02-15T01:30:23;95643.09;;;2.92;59.00
41234;BME280;26968;42.686;23.352;2024-02-15T01:32:49;95640.66;;;2.91;58.90
41234;BME280;26968;42.686;23.352;2024-02-15T01:35:14;95637.06;;;2.93;58.84
41234;BME280;26968;42.686;23.352;2024-02-15T01:37:40;95618.84;;;2.77;58.53
41234;BME280;26968;42.686;23.352;2024-02-15T01:40:06;95642.28;;;2.92;58.52
41234;BME280;26968;42.686;23.352;2024-02-15T01:42:32;95625.03;;;2.74;58.70
41234;BME280;26968;42.686;23.352;2024-02-15T01:44:57;95642.25;;;2.82;59.10
41234;BME280;26968;42.686;23.352;2024-02-15T01:47:23;95649.81;;;2.83;58.67
41234;BME280;26968;42.686;23.352;2024-02-15T01:49:49;95630.97;;;2.85;58.91
41234;BME280;26968;42.686;23.352;2024-02-15T01:52:15;95658.19;;;2.95;58.52
41234;BME280;26968;42.686;23.352;2024-02-15T01:54:42;95643.38;;;2.89;58.95
41234;BME280;26968;42.686;23.352;2024-02-15T01:57:07;95649.56;;;2.87;58.95
41234;BME280;26968;42.686;23.352;2024-02-15T01:59:33;95655.16;;;2.80;58.79
41234;BME280;26968;42.686;23.352;2024-02-15T02:01:59;95654.22;;;2.81;59.00
41234;BME280;26968;42.686;23.352;2024-02-15T02:04:26;95670.50;;;2.80;58.97
41234;BME280;26968;42.686;23.352;2024-02-15T02:06:51;95644.38;;;2.77;58.88
41234;BME280;26968;42.686;23.352;2024-02-15T02:09:21;95657.84;;;2.79;59.33
41234;BME280;26968;42.686;23.352;2024-02-15T02:11:47;95662.72;;;2.82;59.43
41234;BME280;26968;42.686;23.352;2024-02-15T02:14:13;95662.41;;;2.75;59.54
41234;BME280;26968;42.686;23.352;2024-02-15T02:16:39;95660.53;;;2.77;59.61
41234;BME280;26968;42.686;23.352;2024-02-15T02:19:05;95662.41;;;2.75;59.65
41234;BME280;26968;42.686;23.352;2024-02-15T02:21:37;95667.34;;;2.67;59.88
41234;BME280;26968;42.686;23.352;2024-02-15T02:24:13;95658.63;;;2.70;60.26
41234;BME280;26968;42.686;23.352;2024-02-15T02:26:39;95655.06;;;2.61;59.32
41234;BME280;26968;42.686;23.352;2024-02-15T02:29:05;95668.53;;;2.63;60.27
41234;BME280;26968;42.686;23.352;2024-02-15T02:31:35;95652.13;;;2.56;60.40
41234;BME280;26968;42.686;23.352;2024-02-15T02:34:01;95666.50;;;2.57;60.15
41234;BME280;26968;42.686;23.352;2024-02-15T02:36:26;95667.34;;;2.67;60.02
41234;BME280;26968;42.686;23.352;2024-02-15T02:38:53;95663.97;;;2.57;59.76
41234;BME280;26968;42.686;23.352;2024-02-15T02:41:19;95672.31;;;2.59;59.96
41234;BME280;26968;42.686;23.352;2024-02-15T02:43:44;95660.97;;;2.52;60.16
41234;BME280;26968;42.686;23.352;2024-02-15T02:46:10;95658.25;;;2.44;59.98
41234;BME280;26968;42.686;23.352;2024-02-15T02:48:38;95664.00;;;2.46;59.96
41234;BME280;26968;42.686;23.352;2024-02-15T02:51:04;95676.84;;;2.56;60.43
41234;BME280;26968;42.686;23.352;2024-02-15T02:53:29;95676.03;;;2.55;60.23
41234;BME280;26968;42.686;23.352;2024-02-15T02:55:58;95666.38;;;2.59;60.13
41234;BME280;26968;42.686;23.352;2024-02-15T02:58:24;95677.22;;;2.51;60.16
41234;BME280;26968;42.686;23.352;2024-02-15T03:00:50;95668.19;;;2.47;60.31
41234;BME280;26968;42.686;23.352;2024-02-15T03:03:16;95670.50;;;2.50;60.57
41234;BME280;26968;42.686;23.352;2024-02-15T03:05:44;95678.97;;;2.51;60.66
41234;BME280;26968;42.686;23.352;2024-02-15T03:08:11;95677.91;;;2.53;60.56
41234;BME280;26968;42.686;23.352;2024-02-15T03:10:38;95676.41;;;2.51;60.04
41234;BME280;26968;42.686;23.352;2024-02-15T03:13:04;95684.38;;;2.57;60.48
41234;BME280;26968;42.686;23.352;2024-02-15T03:15:30;95681.03;;;2.57;60.11
41234;BME280;26968;42.686;23.352;2024-02-15T03:17:58;95702.16;;;2.59;60.34
41234;BME280;26968;42.686;23.352;2024-02-15T03:20:23;95678.69;;;2.44;60.78
41234;BME280;26968;42.686;23.352;2024-02-15T03:22:58;95697.72;;;2.40;60.76
41234;BME280;26968;42.686;23.352;2024-02-15T03:25:25;95679.97;;;2.38;61.11
41234;BME280;26968;42.686;23.352;2024-02-15T03:27:59;95691.84;;;2.49;60.46
41234;BME280;26968;42.686;23.352;2024-02-15T03:30:29;95681.03;;;2.36;61.05
41234;BME280;26968;42.686;23.352;2024-02-15T03:32:56;95697.28;;;2.35;60.68
41234;BME280;26968;42.686;23.352;2024-02-15T03:35:24;95692.75;;;2.38;60.91
41234;BME280;26968;42.686;23.352;2024-02-15T03:37:50;95688.19;;;2.21;61.71
41234;BME280;26968;42.686;23.352;2024-02-15T03:40:19;95685.81;;;2.29;61.40
41234;BME280;26968;42.686;23.352;2024-02-15T03:42:45;95695.31;;;2.38;61.30
41234;BME280;26968;42.686;23.352;2024-02-15T03:45:15;95684.22;;;2.28;61.56
41234;BME280;26968;42.686;23.352;2024-02-15T03:47:41;95686.38;;;2.33;61.14
41234;BME280;26968;42.686;23.352;2024-02-15T03:50:07;95675.31;;;2.23;61.77
41234;BME280;26968;42.686;23.352;2024-02-15T03:52:35;95697.28;;;2.35;61.03
41234;BME280;26968;42.686;23.352;2024-02-15T03:55:00;95688.88;;;2.23;61.67
41234;BME280;26968;42.686;23.352;2024-02-15T03:57:27;95681.19;;;2.14;61.25
41234;BME280;26968;42.686;23.352;2024-02-15T03:59:54;95690.88;;;2.20;61.15
41234;BME280;26968;42.686;23.352;2024-02-15T04:02:22;95695.06;;;2.21;61.07
41234;BME280;26968;42.686;23.352;2024-02-15T04:04:49;95686.56;;;2.20;61.33
41234;BME280;26968;42.686;23.352;2024-02-15T04:07:17;95699.59;;;2.17;61.35
41234;BME280;26968;42.686;23.352;2024-02-15T04:09:43;95662.78;;;1.99;61.73
41234;BME280;26968;42.686;23.352;2024-02-15T04:12:08;95701.31;;;2.17;61.87
41234;BME280;26968;42.686;23.352;2024-02-15T04:14:34;95673.19;;;2.07;61.61
41234;BME280;26968;42.686;23.352;2024-02-15T04:17:00;95698.03;;;2.26;61.28
41234;BME280;26968;42.686;23.352;2024-02-15T04:19:29;95694.47;;;2.17;61.59
41234;BME280;26968;42.686;23.352;2024-02-15T04:21:55;95689.00;;;2.22;61.40
41234;BME280;26968;42.686;23.352;2024-02-15T04:24:21;95698.66;;;2.18;61.57
41234;BME280;26968;42.686;23.352;2024-02-15T04:26:47;95685.47;;;2.13;61.06
41234;BME280;26968;42.686;23.352;2024-02-15T04:29:16;95697.28;;;2.14;61.68
41234;BME280;26968;42.686;23.352;2024-02-15T04:31:43;95693.66;;;2.17;61.27
41234;BME280;26968;42.686;23.352;2024-02-15T04:34:08;95694.34;;;2.19;61.70
41234;BME280;26968;42.686;23.352;2024-02-15T04:36:37;95695.81;;;2.11;61.46
41234;BME280;26968;42.686;23.352;2024-02-15T04:39:02;95700.34;;;2.08;61.47
41234;BME280;26968;42.686;23.352;2024-02-15T04:41:28;95695.13;;;2.09;61.78
41234;BME280;26968;42.686;23.352;2024-02-15T04:43:54;95714.91;;;2.17;61.76
41234;BME280;26968;42.686;23.352;2024-02-15T04:46:19;95706.63;;;2.04;62.14
41234;BME280;26968;42.686;23.352;2024-02-15T04:48:50;95716.69;;;2.05;61.82
41234;BME280;26968;42.686;23.352;2024-02-15T04:51:16;95726.44;;;2.11;61.56
41234;BME280;26968;42.686;23.352;2024-02-15T04:53:45;95721.81;;;2.05;62.44
41234;BME280;26968;42.686;23.352;2024-02-15T04:56:12;95738.03;;;2.04;61.60
41234;BME280;26968;42.686;23.352;2024-02-15T04:58:41;95729.13;;;1.99;62.14
41234;BME280;26968;42.686;23.352;2024-02-15T05:01:17;95726.97;;;1.94;62.34
41234;BME280;26968;42.686;23.352;2024-02-15T05:03:43;95739.72;;;1.94;62.90
41234;BME280;26968;42.686;23.352;2024-02-15T05:06:10;95724.28;;;1.96;62.60
41234;BME280;26968;42.686;23.352;2024-02-15T05:08:38;95731.56;;;2.00;62.00
41234;BME280;26968;42.686;23.352;2024-02-15T05:11:11;95738.41;;;2.00;62.85
41234;BME280;26968;42.686;23.352;2024-02-15T05:13:45;95741.28;;;2.06;62.50
41234;BME280;26968;42.686;23.352;2024-02-15T05:16:12;95753.25;;;2.06;62.71
41234;BME280;26968;42.686;23.352;2024-02-15T05:18:40;95742.50;;;1.91;62.57
41234;BME280;26968;42.686;23.352;2024-02-15T05:21:06;95735.03;;;1.99;62.52
41234;BME280;26968;42.686;23.352;2024-02-15T05:23:38;95725.25;;;1.84;62.70
41234;BME280;26968;42.686;23.352;2024-02-15T05:26:05;95750.03;;;1.93;63.65
41234;BME280;26968;42.686;23.352;2024-02-15T05:28:31;95749.81;;;1.96;62.97
41234;BME280;26968;42.686;23.352;2024-02-15T05:33:42;95748.09;;;1.85;63.56
41234;BME280;26968;42.686;23.352;2024-02-15T05:36:20;95733.16;;;1.69;63.22
41234;BME280;26968;42.686;23.352;2024-02-15T05:38:50;95763.16;;;1.88;62.72
41234;BME280;26968;42.686;23.352;2024-02-15T05:41:17;95763.84;;;1.90;63.33
41234;BME280;26968;42.686;23.352;2024-02-15T05:43:42;95759.94;;;1.75;62.87
41234;BME280;26968;42.686;23.352;2024-02-15T05:46:10;95755.25;;;1.91;63.67
41234;BME280;26968;42.686;23.352;2024-02-15T05:48:38;95766.16;;;1.93;62.94
41234;BME280;26968;42.686;23.352;2024-02-15T05:51:05;95764.41;;;1.94;62.95
41234;BME280;26968;42.686;23.352;2024-02-15T05:53:32;95742.09;;;1.75;62.30
41234;BME280;26968;42.686;23.352;2024-02-15T05:56:10;95742.78;;;1.77;62.90
41234;BME280;26968;42.686;23.352;2024-02-15T05:58:36;95761.53;;;1.87;62.67
41234;BME280;26968;42.686;23.352;2024-02-15T06:01:03;95750.91;;;1.82;62.54
41234;BME280;26968;42.686;23.352;2024-02-15T06:03:34;95782.84;;;1.97;62.90
41234;BME280;26968;42.686;23.352;2024-02-15T06:06:03;95784.22;;;2.01;62.68
41234;BME280;26968;42.686;23.352;2024-02-15T06:08:32;95757.63;;;1.83;62.77
41234;BME280;26968;42.686;23.352;2024-02-15T06:10:59;95776.84;;;1.87;63.05
41234;BME280;26968;42.686;23.352;2024-02-15T06:13:25;95754.84;;;1.75;62.85
41234;BME280;26968;42.686;23.352;2024-02-15T06:15:51;95781.25;;;1.85;62.86
41234;BME280;26968;42.686;23.352;2024-02-15T06:18:38;95787.97;;;1.97;62.39
41234;BME280;26968;42.686;23.352;2024-02-15T06:21:04;95796.78;;;1.93;62.14
41234;BME280;26968;42.686;23.352;2024-02-15T06:23:31;95801.72;;;2.06;62.86
41234;BME280;26968;42.686;23.352;2024-02-15T06:25:58;95800.22;;;2.03;62.18
41234;BME280;26968;42.686;23.352;2024-02-15T06:28:26;95802.88;;;2.02;62.00
41234;BME280;26968;42.686;23.352;2024-02-15T06:31:11;95807.59;;;2.18;61.63
41234;BME280;26968;42.686;23.352;2024-02-15T06:33:55;95791.41;;;2.07;62.23
41234;BME280;26968;42.686;23.352;2024-02-15T06:36:46;95734.69;;;1.72;61.83
41234;BME280;26968;42.686;23.352;2024-02-15T06:39:30;95806.88;;;2.27;62.05
41234;BME280;26968;42.686;23.352;2024-02-15T06:42:09;95820.59;;;2.26;62.01
41234;BME280;26968;42.686;23.352;2024-02-15T06:44:35;95790.25;;;2.00;61.70
41234;BME280;26968;42.686;23.352;2024-02-15T06:47:01;95813.69;;;2.05;62.26
41234;BME280;26968;42.686;23.352;2024-02-15T06:49:26;95811.13;;;2.05;62.35
41234;BME280;26968;42.686;23.352;2024-02-15T06:51:52;95795.47;;;1.99;62.56
41234;BME280;26968;42.686;23.352;2024-02-15T06:54:17;95798.13;;;2.08;62.64
41234;BME280;26968;42.686;23.352;2024-02-15T06:56:48;95818.25;;;2.23;62.07
41234;BME280;26968;42.686;23.352;2024-02-15T06:59:13;95792.81;;;2.00;62.25
41234;BME280;26968;42.686;23.352;2024-02-15T07:01:42;95816.63;;;2.22;62.68
41234;BME280;26968;42.686;23.352;2024-02-15T07:04:11;95787.22;;;2.06;62.27
41234;BME280;26968;42.686;23.352;2024-02-15T07:06:37;95808.16;;;2.21;62.28
41234;BME280;26968;42.686;23.352;2024-02-15T07:09:03;95815.84;;;2.21;62.31
41234;BME280;26968;42.686;23.352;2024-02-15T07:11:33;95811.53;;;2.22;61.53
41234;BME280;26968;42.686;23.352;2024-02-15T07:14:00;95812.28;;;2.13;61.70
41234;BME280;26968;42.686;23.352;2024-02-15T07:16:26;95818.44;;;2.10;62.33
41234;BME280;26968;42.686;23.352;2024-02-15T07:18:52;95806.03;;;2.05;62.34
41234;BME280;26968;42.686;23.352;2024-02-15T07:21:17;95796.84;;;2.03;62.09
41234;BME280;26968;42.686;23.352;2024-02-15T07:23:46;95818.75;;;2.17;61.94
41234;BME280;26968;42.686;23.352;2024-02-15T07:26:11;95804.84;;;2.09;62.39
41234;BME280;26968;42.686;23.352;2024-02-15T07:28:37;95806.66;;;2.19;62.02
41234;BME280;26968;42.686;23.352;2024-02-15T07:31:03;95812.22;;;2.24;61.90
41234;BME280;26968;42.686;23.352;2024-02-15T07:33:28;95815.03;;;2.21;61.28
41234;BME280;26968;42.686;23.352;2024-02-15T07:35:54;95798.03;;;2.31;61.42
41234;BME280;26968;42.686;23.352;2024-02-15T07:38:22;95802.84;;;2.45;61.21
41234;BME280;26968;42.686;23.352;2024-02-15T07:40:48;95807.47;;;2.51;60.96
41234;BME280;26968;42.686;23.352;2024-02-15T07:43:14;95799.31;;;2.57;61.01
41234;BME280;26968;42.686;23.352;2024-02-15T07:45:39;95790.53;;;2.50;60.54
41234;BME280;26968;42.686;23.352;2024-02-15T07:48:05;95806.97;;;2.57;60.80
41234;BME280;26968;42.686;23.352;2024-02-15T07:50:31;95789.41;;;2.43;60.82
41234;BME280;26968;42.686;23.352;2024-02-15T07:53:00;95797.00;;;2.54;60.72
41234;BME280;26968;42.686;23.352;2024-02-15T07:55:25;95799.81;;;2.51;60.73
41234;BME280;26968;42.686;23.352;2024-02-15T07:57:51;95805.13;;;2.59;60.89
41234;BME280;26968;42.686;23.352;2024-02-15T08:00:19;95796.00;;;2.66;60.45
41234;BME280;26968;42.686;23.352;2024-02-15T08:02:45;95788.53;;;2.74;60.53
41234;BME280;26968;42.686;23.352;2024-02-15T08:05:11;95777.53;;;2.74;60.13
41234;BME280;26968;42.686;23.352;2024-02-15T08:07:44;95790.81;;;2.77;59.70
41234;BME280;26968;42.686;23.352;2024-02-15T08:10:11;95782.34;;;2.77;60.05
41234;BME280;26968;42.686;23.352;2024-02-15T08:12:46;95787.78;;;2.83;60.44
41234;BME280;26968;42.686;23.352;2024-02-15T08:15:13;95769.78;;;2.85;59.20
41234;BME280;26968;42.686;23.352;2024-02-15T08:17:43;95791.88;;;2.96;59.34
41234;BME280;26968;42.686;23.352;2024-02-15T08:20:11;95785.66;;;2.89;59.08
41234;BME280;26968;42.686;23.352;2024-02-15T08:22:37;95798.50;;;2.77;60.02
41234;BME280;26968;42.686;23.352;2024-02-15T08:25:09;95784.53;;;2.81;59.97
41234;BME280;26968;42.686;23.352;2024-02-15T08:27:43;95794.06;;;3.00;59.59
41234;BME280;26968;42.686;23.352;2024-02-15T08:30:11;95791.13;;;3.05;59.13
41234;BME280;26968;42.686;23.352;2024-02-15T08:32:38;95775.44;;;2.89;59.67
41234;BME280;26968;42.686;23.352;2024-02-15T08:35:07;95788.72;;;3.03;59.49
41234;BME280;26968;42.686;23.352;2024-02-15T08:37:36;95785.94;;;3.16;59.17
41234;BME280;26968;42.686;23.352;2024-02-15T08:40:10;95791.19;;;3.24;58.68
41234;BME280;26968;42.686;23.352;2024-02-15T08:42:40;95781.66;;;3.26;58.25
41234;BME280;26968;42.686;23.352;2024-02-15T08:45:07;95774.00;;;3.26;58.85
41234;BME280;26968;42.686;23.352;2024-02-15T08:47:36;95770.94;;;3.42;58.72
41234;BME280;26968;42.686;23.352;2024-02-15T08:50:03;95788.22;;;3.49;57.93
41234;BME280;26968;42.686;23.352;2024-02-15T08:52:29;95778.13;;;3.58;57.27
41234;BME280;26968;42.686;23.352;2024-02-15T08:54:54;95772.22;;;3.57;57.22
41234;BME280;26968;42.686;23.352;2024-02-15T08:57:22;95776.69;;;3.65;57.05
41234;BME280;26968;42.686;23.352;2024-02-15T08:59:49;95765.78;;;3.63;57.23
41234;BME280;26968;42.686;23.352;2024-02-15T09:02:17;95750.38;;;3.43;56.62
41234;BME280;26968;42.686;23.352;2024-02-15T09:04:43;95769.53;;;3.59;56.91
41234;BME280;26968;42.686;23.352;2024-02-15T09:07:08;95767.09;;;3.67;56.60
41234;BME280;26968;42.686;23.352;2024-02-15T09:09:34;95782.19;;;3.70;56.47
41234;BME280;26968;42.686;23.352;2024-02-15T09:12:04;95774.13;;;3.74;57.32
41234;BME280;26968;42.686;23.352;2024-02-15T09:14:32;95769.53;;;3.68;55.79
41234;BME280;26968;42.686;23.352;2024-02-15T09:16:59;95775.25;;;3.81;55.44
41234;BME280;26968;42.686;23.352;2024-02-15T09:19:24;95758.91;;;3.82;54.43
41234;BME280;26968;42.686;23.352;2024-02-15T09:21:50;95763.38;;;3.90;55.88
41234;BME280;26968;42.686;23.352;2024-02-15T09:24:16;95765.28;;;3.98;55.93
41234;BME280;26968;42.686;23.352;2024-02-15T09:26:42;95759.38;;;4.07;55.69
41234;BME280;26968;42.686;23.352;2024-02-15T09:29:09;95753.16;;;4.19;54.24
41234;BME280;26968;42.686;23.352;2024-02-15T09:31:35;95746.44;;;4.28;55.17
41234;BME280;26968;42.686;23.352;2024-02-15T09:34:01;95757.06;;;4.33;53.02
41234;BME280;26968;42.686;23.352;2024-02-15T09:36:34;95762.88;;;4.35;53.42
41234;BME280;26968;42.686;23.352;2024-02-15T09:38:59;95735.53;;;4.26;53.60
41234;BME280;26968;42.686;23.352;2024-02-15T09:41:25;95750.19;;;4.33;53.67
41234;BME280;26968;42.686;23.352;2024-02-15T09:43:50;95745.63;;;4.37;53.04
41234;BME280;26968;42.686;23.352;2024-02-15T09:46:17;95724.03;;;4.39;53.89
41234;BME280;26968;42.686;23.352;2024-02-15T09:48:50;95733.72;;;4.55;52.68
41234;BME280;26968;42.686;23.352;2024-02-15T09:51:18;95743.16;;;4.64;53.43
41234;BME280;26968;42.686;23.352;2024-02-15T09:53:44;95737.34;;;4.72;53.56
41234;BME280;26968;42.686;23.352;2024-02-15T09:56:15;95739.06;;;4.81;52.76
41234;BME280;26968;42.686;23.352;2024-02-15T09:58:41;95739.88;;;4.81;52.57
41234;BME280;26968;42.686;23.352;2024-02-15T10:01:09;95733.13;;;4.80;52.26
41234;BME280;26968;42.686;23.352;2024-02-15T10:03:40;95703.22;;;4.71;52.70
41234;BME280;26968;42.686;23.352;2024-02-15T10:06:06;95723.28;;;4.85;51.95
41234;BME280;26968;42.686;23.352;2024-02-15T10:08:31;95712.34;;;4.83;51.38
41234;BME280;26968;42.686;23.352;2024-02-15T10:11:07;95717.44;;;4.93;51.80
41234;BME280;26968;42.686;23.352;2024-02-15T10:13:35;95725.38;;;5.00;51.74
41234;BME280;26968;42.686;23.352;2024-02-15T10:16:20;95716.06;;;4.99;51.24
41234;BME280;26968;42.686;23.352;2024-02-15T10:18:51;95714.94;;;5.11;51.41
41234;BME280;26968;42.686;23.352;2024-02-15T10:21:26;95706.75;;;5.52;49.87
41234;BME280;26968;42.686;23.352;2024-02-15T10:24:07;95677.25;;;6.19;48.58
41234;BME280;26968;42.686;23.352;2024-02-15T10:26:34;95692.66;;;7.23;46.47
41234;BME280;26968;42.686;23.352;2024-02-15T10:29:11;95695.28;;;8.22;43.27
41234;BME280;26968;42.686;23.352;2024-02-15T10:31:40;95677.38;;;8.85;42.29
41234;BME280;26968;42.686;23.352;2024-02-15T10:34:17;95684.31;;;9.32;39.82
41234;BME280;26968;42.686;23.352;2024-02-15T10:36:44;95693.94;;;10.00;38.21
41234;BME280;26968;42.686;23.352;2024-02-15T10:39:18;95689.28;;;10.18;37.07
41234;BME280;26968;42.686;23.352;2024-02-15T10:41:47;95673.94;;;10.91;36.37
41234;BME280;26968;42.686;23.352;2024-02-15T10:44:21;95668.50;;;10.34;36.71
41234;BME280;26968;42.686;23.352;2024-02-15T10:46:51;95682.69;;;9.93;38.35
41234;BME280;26968;42.686;23.352;2024-02-15T10:49:21;95663.13;;;10.21;36.99
41234;BME280;26968;42.686;23.352;2024-02-15T10:51:58;95665.34;;;10.47;37.00
41234;BME280;26968;42.686;23.352;2024-02-15T10:54:52;95672.59;;;10.29;37.25
41234;BME280;26968;42.686;23.352;2024-02-15T10:57:25;95653.06;;;10.26;37.38
41234;BME280;26968;42.686;23.352;2024-02-15T10:59:53;95659.63;;;10.51;36.91
41234;BME280;26968;42.686;23.352;2024-02-15T11:02:26;95659.41;;;11.05;36.09
41234;BME280;26968;42.686;23.352;2024-02-15T11:04:53;95642.38;;;10.81;36.06
41234;BME280;26968;42.686;23.352;2024-02-15T11:07:25;95647.88;;;10.26;36.34
41234;BME280;26968;42.686;23.352;2024-02-15T11:09:54;95651.72;;;10.68;35.83
41234;BME280;26968;42.686;23.352;2024-02-15T11:12:28;95659.03;;;10.79;36.87
41234;BME280;26968;42.686;23.352;2024-02-15T11:14:54;95660.03;;;10.92;35.97
41234;BME280;26968;42.686;23.352;2024-02-15T11:23:02;95648.78;;;10.85;36.07
41234;BME280;26968;42.686;23.352;2024-02-15T11:25:35;95639.63;;;10.08;37.65
41234;BME280;26968;42.686;23.352;2024-02-15T11:30:50;95593.06;;;10.31;37.37
41234;BME280;26968;42.686;23.352;2024-02-15T11:33:28;95639.31;;;10.26;37.00
41234;BME280;26968;42.686;23.352;2024-02-15T11:36:11;95645.69;;;9.69;39.58
41234;BME280;26968;42.686;23.352;2024-02-15T11:38:39;95638.09;;;10.13;37.65
41234;BME280;26968;42.686;23.352;2024-02-15T11:41:11;95616.53;;;10.06;38.03
41234;BME280;26968;42.686;23.352;2024-02-15T11:46:14;95630.66;;;10.85;37.85
41234;BME280;26968;42.686;23.352;2024-02-15T11:48:40;95573.81;;;10.92;36.84
41234;BME280;26968;42.686;23.352;2024-02-15T11:51:06;95622.81;;;10.79;36.78
41234;BME280;26968;42.686;23.352;2024-02-15T11:53:33;95636.22;;;11.48;37.27
41234;BME280;26968;42.686;23.352;2024-02-15T11:56:01;95600.59;;;11.71;35.25
41234;BME280;26968;42.686;23.352;2024-02-15T11:58:28;95616.78;;;11.73;34.90
41234;BME280;26968;42.686;23.352;2024-02-15T12:01:11;95618.41;;;12.17;35.27
41234;BME280;26968;42.686;23.352;2024-02-15T12:03:55;95617.84;;;12.49;34.27
41234;BME280;26968;42.686;23.352;2024-02-15T12:06:40;95610.47;;;11.46;35.27
41234;BME280;26968;42.686;23.352;2024-02-15T12:09:24;95608.47;;;11.63;35.44
41234;BME280;26968;42.686;23.352;2024-02-15T12:12:11;95598.81;;;12.14;34.75
41234;BME280;26968;42.686;23.352;2024-02-15T12:15:23;95611.38;;;11.89;35.41
41234;BME280;26968;42.686;23.352;2024-02-15T12:18:15;95584.00;;;12.08;34.55
41234;BME280;26968;42.686;23.352;2024-02-15T12:20:59;95616.34;;;12.61;35.05
41234;BME280;26968;42.686;23.352;2024-02-15T12:23:28;95590.34;;;12.27;34.53
41234;BME280;26968;42.686;23.352;2024-02-15T12:25:57;95608.28;;;12.01;34.86
41234;BME280;26968;42.686;23.352;2024-02-15T12:28:23;95591.94;;;11.64;35.73
41234;BME280;26968;42.686;23.352;2024-02-15T12:30:54;95601.69;;;11.62;36.33
41234;BME280;26968;42.686;23.352;2024-02-15T12:33:21;95605.78;;;11.71;36.13
41234;BME280;26968;42.686;23.352;2024-02-15T12:35:47;95589.50;;;12.20;35.32
41234;BME280;26968;42.686;23.352;2024-02-15T12:38:12;95595.06;;;11.74;35.14
41234;BME280;26968;42.686;23.352;2024-02-15T12:40:42;95596.03;;;11.73;36.07
41234;BME280;26968;42.686;23.352;2024-02-15T12:43:10;95603.09;;;11.79;35.85
41234;BME280;26968;42.686;23.352;2024-02-15T12:45:39;95587.66;;;11.92;35.47
41234;BME280;26968;42.686;23.352;2024-02-15T12:48:07;95593.53;;;12.29;35.91
41234;BME280;26968;42.686;23.352;2024-02-15T12:50:34;95581.31;;;11.38;36.23
41234;BME280;26968;42.686;23.352;2024-02-15T12:53:00;95568.94;;;12.18;35.37
41234;BME280;26968;42.686;23.352;2024-02-15T12:55:29;95573.16;;;12.54;34.43
41234;BME280;26968;42.686;23.352;2024-02-15T12:58:01;95583.69;;;12.18;34.59
41234;BME280;26968;42.686;23.352;2024-02-15T13:00:30;95575.03;;;11.68;36.59
41234;BME280;26968;42.686;23.352;2024-02-15T13:03:05;95592.16;;;12.05;36.00
41234;BME280;26968;42.686;23.352;2024-02-15T13:05:34;95584.78;;;11.66;36.47
41234;BME280;26968;42.686;23.352;2024-02-15T13:08:02;95584.56;;;11.82;35.52
41234;BME280;26968;42.686;23.352;2024-02-15T13:10:30;95562.59;;;11.78;36.34
41234;BME280;26968;42.686;23.352;2024-02-15T13:12:59;95573.22;;;11.83;35.93
41234;BME280;26968;42.686;23.352;2024-02-15T13:15:25;95569.31;;;12.15;35.90
41234;BME280;26968;42.686;23.352;2024-02-15T13:17:59;95568.06;;;12.11;35.27